CheckWX is a tool to help pilots better visualize weather data.  It is not intended as a substitute for an official pre-flight weather briefing.

19:15:01 UTC

ETNL METAR
Rostock-Laage Airport
Rostock, Germany
Current

55 mins ago

ETNL 261820Z 23006KT 9999 SCT042 BKN050 18/11 Q1005 BLU
Observed
May-26 @ 18:20 UTC
Wind
  • 230° at 6 KTS
Visibility
10,000+ meters
Flight Rules
VFR
Cloud Levels
  • Scattered at 4,200' AGL
  • Broken at 5,000' AGL
Temperature
18°C / 64°F
Dewpoint
11°C / 52°F
Humidity
64%
Altimeter
29.68" Hg
Pressure
1004.92 hPa
Previous

2 hours ago

ETNL 261720Z 23005KT 9999 BKN042 18/11 Q1006 BLU
Observed
May-26 @ 17:20 UTC
Wind
  • 230° at 5 KTS
Visibility
10,000+ meters
Flight Rules
VFR
Cloud Levels
  • Broken at 4,200' AGL
Temperature
18°C / 64°F
Dewpoint
11°C / 52°F
Humidity
64%
Altimeter
29.7" Hg
Pressure
1005.92 hPa
Previous

3 hours ago

ETNL 261620Z 24009KT 9999 BKN044 18/11 Q1006 BLU
Observed
May-26 @ 16:20 UTC
Wind
  • 240° at 9 KTS
Visibility
10,000+ meters
Flight Rules
VFR
Cloud Levels
  • Broken at 4,400' AGL
Temperature
18°C / 64°F
Dewpoint
11°C / 52°F
Humidity
64%
Altimeter
29.7" Hg
Pressure
1005.92 hPa